createdAt,value
2023-01-18T00:02:09.203Z,1.90
2023-01-18T00:04:35.951Z,2.38
2023-01-18T00:07:02.655Z,1.83
2023-01-18T00:09:29.371Z,2.25
2023-01-18T00:11:56.061Z,1.60
2023-01-18T00:14:22.718Z,2.17
2023-01-18T00:16:49.373Z,2.10
2023-01-18T00:19:16.269Z,1.90
2023-01-18T00:21:43.095Z,2.00
2023-01-18T00:24:14.885Z,1.88
2023-01-18T00:26:42.533Z,1.85
2023-01-18T00:29:10.425Z,2.00
2023-01-18T00:31:37.644Z,2.00
2023-01-18T00:34:04.686Z,1.85
2023-01-18T00:36:32.011Z,1.80
2023-01-18T00:38:58.759Z,2.42
2023-01-18T00:41:25.603Z,1.67
2023-01-18T00:43:52.571Z,1.38
2023-01-18T00:46:23.774Z,1.80
2023-01-18T00:48:51.224Z,1.60
2023-01-18T00:51:19.986Z,1.65
2023-01-18T00:53:46.955Z,1.48
2023-01-18T00:56:15.274Z,1.75
2023-01-18T00:58:42.455Z,1.60
2023-01-18T01:01:10.089Z,1.20
2023-01-18T01:03:55.788Z,1.35
2023-01-18T01:06:44.510Z,1.63
2023-01-18T01:09:15.274Z,1.20
2023-01-18T01:12:01.977Z,1.40
2023-01-18T01:14:47.217Z,1.17
2023-01-18T01:17:32.659Z,1.20
2023-01-18T01:20:17.812Z,1.20
2023-01-18T01:23:03.254Z,1.50
2023-01-18T01:25:48.563Z,1.20
2023-01-18T01:28:15.210Z,0.90
2023-01-18T01:30:41.901Z,1.10
2023-01-18T01:33:08.635Z,0.93
2023-01-18T01:35:35.999Z,1.15
2023-01-18T01:38:02.753Z,0.95
2023-01-18T01:40:29.506Z,1.13
2023-01-18T01:42:56.555Z,1.17
2023-01-18T01:45:24.165Z,0.82
2023-01-18T01:47:50.939Z,0.98
2023-01-18T01:50:20.841Z,1.20
2023-01-18T01:52:47.880Z,0.98
2023-01-18T01:55:34.743Z,1.35
2023-01-18T01:58:10.409Z,1.10
2023-01-18T02:00:37.174Z,1.30
2023-01-18T02:03:05.694Z,0.90
2023-01-18T02:05:33.733Z,1.10
2023-01-18T02:08:01.483Z,0.90
2023-01-18T02:10:29.187Z,0.90
2023-01-18T02:12:56.956Z,0.82
2023-01-18T02:15:26.531Z,0.82
2023-01-18T02:18:02.842Z,1.00
2023-01-18T02:20:48.924Z,1.13
2023-01-18T02:23:35.557Z,1.00
2023-01-18T02:26:02.198Z,1.35
2023-01-18T02:28:37.976Z,0.90
2023-01-18T02:31:14.543Z,0.70
2023-01-18T02:33:51.038Z,1.00
2023-01-18T02:36:40.735Z,1.00
2023-01-18T02:39:23.111Z,0.90
2023-01-18T02:42:14.785Z,0.85
2023-01-18T02:45:02.076Z,1.15
2023-01-18T02:47:28.798Z,0.90
2023-01-18T02:49:59.148Z,1.00
2023-01-18T02:52:41.149Z,1.00
2023-01-18T02:55:14.352Z,1.15
2023-01-18T02:57:41.026Z,0.98
2023-01-18T03:00:09.337Z,1.33
2023-01-18T03:02:36.018Z,0.90
2023-01-18T03:05:03.620Z,1.23
2023-01-18T03:07:57.844Z,1.25
2023-01-18T03:10:28.512Z,1.02
2023-01-18T03:13:24.981Z,0.93
2023-01-18T03:16:15.114Z,1.00
2023-01-18T03:19:01.738Z,0.85
2023-01-18T03:21:34.807Z,0.70
2023-01-18T03:24:02.023Z,0.90
2023-01-18T03:26:28.729Z,1.00
2023-01-18T03:29:14.883Z,0.90
2023-01-18T03:32:04.506Z,1.00
2023-01-18T03:34:48.266Z,0.80
2023-01-18T03:39:46.414Z,0.82
2023-01-18T03:42:18.995Z,0.73
2023-01-18T03:44:52.427Z,1.20
2023-01-18T03:49:45.816Z,1.02
2023-01-18T03:52:26.074Z,0.93
2023-01-18T03:55:17.050Z,0.80
2023-01-18T03:58:00.770Z,0.80
2023-01-18T04:02:54.326Z,0.80
2023-01-18T04:05:21.008Z,0.90
2023-01-18T04:07:47.658Z,1.20
2023-01-18T04:10:14.437Z,0.88
2023-01-18T04:12:41.156Z,1.35
2023-01-18T04:15:08.264Z,1.02
2023-01-18T04:17:34.967Z,1.10
2023-01-18T04:20:01.802Z,1.00
2023-01-18T04:22:28.462Z,1.17
2023-01-18T04:24:55.211Z,1.10
2023-01-18T04:27:24.298Z,1.20
2023-01-18T04:29:51.473Z,0.98
2023-01-18T04:32:18.183Z,1.02
2023-01-18T04:34:44.890Z,1.00
2023-01-18T04:37:11.589Z,0.98
2023-01-18T04:39:38.703Z,1.00
2023-01-18T04:42:05.541Z,0.88
2023-01-18T04:44:32.262Z,1.17
2023-01-18T04:46:58.933Z,0.80
2023-01-18T04:49:25.670Z,0.85
2023-01-18T04:51:52.400Z,0.82
2023-01-18T04:54:19.260Z,0.95
2023-01-18T04:56:46.023Z,0.63
2023-01-18T04:59:16.300Z,0.90
2023-01-18T05:01:43.203Z,1.00
2023-01-18T05:04:10.068Z,0.60
2023-01-18T05:06:36.806Z,0.80
2023-01-18T05:09:03.543Z,0.70
2023-01-18T05:11:30.230Z,0.90
2023-01-18T05:13:56.941Z,0.73
2023-01-18T05:16:23.874Z,0.80
2023-01-18T05:18:50.610Z,1.10
2023-01-18T05:21:17.454Z,1.00
2023-01-18T05:23:44.221Z,1.10
2023-01-18T05:26:21.808Z,0.98
2023-01-18T05:28:48.930Z,1.00
2023-01-18T05:31:16.195Z,0.98
2023-01-18T05:33:43.065Z,0.90
2023-01-18T05:36:09.923Z,0.80
2023-01-18T05:38:36.609Z,0.98
2023-01-18T05:41:03.583Z,1.13
2023-01-18T05:43:30.342Z,1.08
2023-01-18T05:45:57.520Z,1.13
2023-01-18T05:48:24.827Z,1.00
2023-01-18T05:50:51.682Z,1.35
2023-01-18T05:53:19.844Z,1.23
2023-01-18T05:55:57.294Z,0.73
2023-01-18T05:58:24.634Z,1.00
2023-01-18T06:00:51.500Z,0.95
2023-01-18T06:03:18.361Z,1.20
2023-01-18T06:05:45.250Z,0.95
2023-01-18T06:08:12.577Z,0.75
2023-01-18T06:10:39.714Z,0.90
2023-01-18T06:13:06.880Z,0.90
2023-01-18T06:15:33.866Z,1.00
2023-01-18T06:18:00.681Z,1.02
2023-01-18T06:20:30.603Z,0.98
2023-01-18T06:22:58.155Z,1.00
2023-01-18T06:25:26.248Z,0.90
2023-01-18T06:27:52.949Z,1.10
2023-01-18T06:30:19.822Z,1.00
2023-01-18T06:32:48.494Z,1.08
2023-01-18T06:35:15.383Z,0.95
2023-01-18T06:37:45.220Z,1.15
2023-01-18T06:40:12.131Z,1.00
2023-01-18T06:42:38.892Z,1.20
2023-01-18T06:45:06.122Z,0.70
2023-01-18T06:47:32.846Z,0.90
2023-01-18T06:49:59.632Z,0.70
2023-01-18T06:52:26.399Z,0.80
2023-01-18T06:54:53.147Z,0.90
2023-01-18T06:57:19.787Z,0.90
2023-01-18T06:59:46.448Z,1.10
2023-01-18T07:02:13.980Z,0.95
2023-01-18T07:04:44.195Z,0.90
2023-01-18T07:07:13.810Z,1.10
2023-01-18T07:09:40.575Z,1.13
2023-01-18T07:12:07.602Z,1.30
2023-01-18T07:14:34.508Z,1.38
2023-01-18T07:17:01.259Z,1.55
2023-01-18T07:19:28.079Z,1.08
2023-01-18T07:21:54.991Z,1.02
2023-01-18T07:24:22.356Z,1.20
2023-01-18T07:26:49.102Z,1.20
2023-01-18T07:29:15.908Z,1.17
2023-01-18T07:31:42.672Z,0.90
2023-01-18T07:34:10.119Z,1.27
2023-01-18T07:36:39.202Z,1.02
2023-01-18T07:39:06.587Z,0.95
2023-01-18T07:41:33.495Z,0.82
2023-01-18T07:44:00.645Z,1.25
2023-01-18T07:46:27.656Z,1.30
2023-01-18T07:48:54.624Z,1.10
2023-01-18T07:51:24.628Z,0.90
2023-01-18T07:53:55.203Z,1.25
2023-01-18T07:56:22.977Z,1.38
2023-01-18T07:58:49.678Z,1.10
2023-01-18T08:01:18.047Z,1.20
2023-01-18T08:03:45.640Z,1.25
2023-01-18T08:06:19.860Z,1.30
2023-01-18T08:08:46.657Z,0.85
2023-01-18T08:11:13.489Z,0.90
2023-01-18T08:13:40.222Z,1.30
2023-01-18T08:16:08.274Z,0.90
2023-01-18T08:18:35.151Z,0.95
2023-01-18T08:21:01.915Z,1.20
2023-01-18T08:23:28.878Z,0.95
2023-01-18T08:25:55.711Z,1.10
2023-01-18T08:28:22.734Z,0.77
2023-01-18T08:30:49.552Z,0.85
2023-01-18T08:33:16.486Z,0.70
2023-01-18T08:35:47.321Z,0.77
2023-01-18T08:38:14.857Z,0.80
2023-01-18T08:40:41.942Z,0.85
2023-01-18T08:43:10.682Z,0.85
2023-01-18T08:45:37.428Z,0.93
2023-01-18T08:48:06.170Z,0.85
2023-01-18T08:50:33.181Z,1.00
2023-01-18T08:53:00.889Z,0.60
2023-01-18T08:55:30.752Z,0.85
2023-01-18T08:57:57.927Z,0.80
2023-01-18T09:00:28.411Z,0.70
2023-01-18T09:02:55.325Z,0.52
2023-01-18T09:05:22.628Z,0.80
2023-01-18T09:07:51.012Z,1.10
2023-01-18T09:10:18.527Z,1.00
2023-01-18T09:12:45.496Z,0.90
2023-01-18T09:15:12.264Z,1.10
2023-01-18T09:17:42.099Z,1.08
2023-01-18T09:20:10.671Z,1.02
2023-01-18T09:22:37.629Z,0.80
2023-01-18T09:25:05.770Z,1.35
2023-01-18T09:27:32.770Z,1.30
2023-01-18T09:29:59.615Z,1.40
2023-01-18T09:32:27.465Z,1.45
2023-01-18T09:34:54.821Z,1.60
2023-01-18T09:37:21.628Z,1.45
2023-01-18T09:39:52.179Z,1.42
2023-01-18T09:42:24.165Z,1.27
2023-01-18T09:44:52.715Z,1.55
2023-01-18T09:47:29.271Z,1.30
2023-01-18T09:49:57.912Z,1.50
2023-01-18T09:52:43.455Z,1.42
2023-01-18T09:55:28.777Z,1.63
2023-01-18T09:58:27.695Z,1.73
2023-01-18T10:00:56.041Z,2.20
2023-01-18T10:03:27.069Z,2.45
2023-01-18T10:06:08.917Z,1.65
2023-01-18T10:08:58.702Z,1.83
2023-01-18T10:11:47.444Z,1.95
2023-01-18T10:14:28.669Z,1.80
2023-01-18T10:16:57.196Z,1.10
2023-01-18T10:19:30.849Z,1.60
2023-01-18T10:22:18.637Z,1.85
2023-01-18T10:24:57.536Z,1.70
2023-01-18T10:27:39.790Z,1.50
2023-01-18T10:30:14.897Z,1.83
2023-01-18T10:32:46.621Z,1.50
2023-01-18T10:35:30.027Z,2.10
2023-01-18T10:38:04.721Z,1.90
2023-01-18T10:40:31.589Z,2.28
2023-01-18T10:43:04.327Z,2.13
2023-01-18T10:45:32.618Z,2.00
2023-01-18T10:48:17.789Z,3.20
2023-01-18T10:50:46.037Z,2.08
2023-01-18T10:53:31.394Z,2.03
2023-01-18T10:56:10.493Z,2.00
2023-01-18T10:58:58.802Z,1.70
2023-01-18T11:01:36.273Z,1.83
2023-01-18T11:04:42.645Z,1.88
2023-01-18T11:07:09.464Z,1.73
2023-01-18T11:09:55.420Z,2.20
2023-01-18T11:12:38.885Z,2.00
2023-01-18T11:15:16.725Z,1.65
2023-01-18T11:18:04.071Z,2.10
2023-01-18T11:20:40.659Z,2.33
2023-01-18T11:23:30.758Z,2.00
2023-01-18T11:26:05.694Z,2.33
2023-01-18T11:29:01.676Z,1.92
2023-01-18T11:31:30.502Z,2.33
2023-01-18T11:33:59.409Z,2.45
2023-01-18T11:36:38.111Z,2.35
2023-01-18T11:39:27.865Z,2.28
2023-01-18T11:42:25.650Z,2.00
2023-01-18T11:45:01.134Z,2.67
2023-01-18T11:47:32.376Z,2.92
2023-01-18T11:50:03.757Z,2.53
2023-01-18T11:52:59.512Z,2.10
2023-01-18T11:56:08.739Z,2.38
2023-01-18T11:58:36.126Z,2.67
2023-01-18T12:01:31.024Z,2.17
2023-01-18T12:04:04.300Z,2.63
2023-01-18T12:07:03.599Z,2.75
2023-01-18T12:10:10.609Z,2.47
2023-01-18T12:12:55.703Z,2.70
2023-01-18T12:15:31.200Z,2.30
2023-01-18T12:18:13.649Z,2.28
2023-01-18T12:21:01.682Z,1.95
2023-01-18T12:23:46.710Z,2.13
2023-01-18T12:26:41.024Z,3.17
2023-01-18T12:29:32.337Z,2.20
2023-01-18T12:32:20.997Z,2.30
2023-01-18T12:35:23.772Z,1.55
2023-01-18T12:38:05.481Z,1.67
2023-01-18T12:40:34.970Z,1.60
2023-01-18T12:43:23.182Z,1.40
2023-01-18T12:46:18.748Z,1.55
2023-01-18T12:48:56.104Z,1.40
2023-01-18T12:51:24.536Z,1.48
2023-01-18T12:54:08.901Z,1.88
2023-01-18T12:56:46.158Z,1.77
2023-01-18T12:59:17.396Z,1.65
2023-01-18T13:01:46.669Z,1.45
2023-01-18T13:04:16.798Z,1.92
2023-01-18T13:06:43.596Z,1.52
2023-01-18T13:09:13.196Z,1.40
2023-01-18T13:11:41.727Z,1.50
2023-01-18T13:14:27.476Z,1.70
2023-01-18T13:17:15.160Z,1.60
2023-01-18T13:20:01.883Z,1.40
2023-01-18T13:22:39.419Z,1.55
2023-01-18T13:25:18.490Z,1.27
2023-01-18T13:28:05.637Z,1.23
2023-01-18T13:30:37.839Z,1.33
2023-01-18T13:33:13.660Z,1.27
2023-01-18T13:35:48.868Z,1.70
2023-01-18T13:38:18.196Z,1.55
2023-01-18T13:41:08.309Z,1.20
2023-01-18T13:43:38.117Z,1.75
2023-01-18T13:46:09.354Z,1.90
2023-01-18T13:48:54.305Z,1.58
2023-01-18T13:51:41.906Z,1.60
2023-01-18T13:54:21.033Z,1.70
2023-01-18T13:57:16.807Z,1.50
2023-01-18T13:59:48.405Z,1.33
2023-01-18T14:02:33.988Z,1.35
2023-01-18T14:05:16.728Z,1.27
2023-01-18T14:07:45.528Z,1.40
2023-01-18T14:10:26.592Z,1.40
2023-01-18T14:12:55.247Z,1.38
2023-01-18T14:15:46.578Z,1.13
2023-01-18T14:18:28.178Z,1.08
2023-01-18T14:21:01.027Z,1.30
2023-01-18T14:23:39.982Z,1.10
2023-01-18T14:26:11.701Z,1.67
2023-01-18T14:28:57.477Z,1.15
2023-01-18T14:31:29.659Z,1.15
2023-01-18T14:33:56.423Z,1.10
2023-01-18T14:36:27.707Z,1.02
2023-01-18T14:39:13.032Z,1.02
2023-01-18T14:42:07.048Z,1.40
2023-01-18T14:47:25.587Z,1.83
2023-01-18T14:49:52.412Z,1.42
2023-01-18T14:52:19.401Z,1.58
2023-01-18T14:54:52.219Z,1.70
2023-01-18T14:57:19.123Z,1.23
2023-01-18T14:59:57.498Z,1.35
2023-01-18T15:02:29.290Z,1.00
2023-01-18T15:05:13.247Z,1.25
2023-01-18T15:07:40.333Z,1.25
2023-01-18T15:10:10.669Z,1.35
2023-01-18T15:12:37.584Z,1.15
2023-01-18T15:15:08.186Z,1.25
2023-01-18T15:17:36.242Z,1.63
2023-01-18T15:20:08.351Z,1.27
2023-01-18T15:22:37.824Z,1.30
2023-01-18T15:25:06.761Z,1.30
2023-01-18T15:27:33.598Z,1.05
2023-01-18T15:30:01.441Z,1.00
2023-01-18T15:32:34.730Z,0.80
2023-01-18T15:35:01.563Z,0.90
2023-01-18T15:37:30.379Z,1.33
2023-01-18T15:39:57.807Z,0.73
2023-01-18T15:42:38.870Z,1.10
2023-01-18T15:45:07.249Z,1.40
2023-01-18T15:47:36.761Z,0.85
2023-01-18T15:50:05.995Z,0.98
2023-01-18T15:52:43.191Z,0.93
2023-01-18T15:55:24.536Z,0.98
2023-01-18T15:58:02.991Z,1.13
2023-01-18T16:00:38.749Z,0.93
2023-01-18T16:03:06.211Z,0.90
2023-01-18T16:05:33.025Z,1.13
2023-01-18T16:08:18.371Z,1.75
2023-01-18T16:10:55.478Z,1.75
2023-01-18T16:13:36.667Z,1.25
2023-01-18T16:16:14.159Z,1.50
2023-01-18T16:18:46.719Z,1.27
2023-01-18T16:21:20.432Z,1.20
2023-01-18T16:23:49.065Z,1.20
2023-01-18T16:26:17.641Z,1.17
2023-01-18T16:28:44.403Z,1.30
2023-01-18T16:31:11.255Z,1.20
2023-01-18T16:33:37.928Z,1.10
2023-01-18T16:36:18.477Z,0.80
2023-01-18T16:38:45.542Z,1.50
2023-01-18T16:41:12.947Z,1.10
2023-01-18T16:43:39.789Z,1.13
2023-01-18T16:46:06.635Z,1.30
2023-01-18T16:48:34.097Z,1.00
2023-01-18T16:51:01.453Z,1.20
2023-01-18T16:53:33.070Z,1.13
2023-01-18T16:56:00.141Z,1.08
2023-01-18T16:58:28.806Z,0.98
2023-01-18T17:01:01.005Z,1.00
2023-01-18T17:03:27.801Z,0.90
2023-01-18T17:05:55.276Z,1.00
2023-01-18T17:08:22.527Z,1.48
2023-01-18T17:10:50.357Z,1.00
2023-01-18T17:13:17.074Z,0.75
2023-01-18T17:15:45.512Z,0.93
2023-01-18T17:18:25.519Z,1.60
2023-01-18T17:20:53.855Z,1.33
2023-01-18T17:23:20.902Z,1.48
2023-01-18T17:25:48.263Z,1.20
2023-01-18T17:28:16.465Z,1.30
2023-01-18T17:30:43.874Z,1.25
2023-01-18T17:33:21.732Z,2.00
2023-01-18T17:35:49.314Z,1.55
2023-01-18T17:38:23.775Z,1.27
2023-01-18T17:40:51.458Z,1.48
2023-01-18T17:43:28.532Z,1.30
2023-01-18T17:46:01.940Z,1.73
2023-01-18T17:48:29.227Z,1.45
2023-01-18T17:50:56.248Z,1.42
2023-01-18T17:53:23.053Z,1.40
2023-01-18T17:55:49.973Z,1.05
2023-01-18T17:58:16.853Z,1.73
2023-01-18T18:00:43.541Z,2.03
2023-01-18T18:03:10.411Z,2.25
2023-01-18T18:05:37.193Z,2.20
2023-01-18T18:08:04.591Z,1.90
2023-01-18T18:10:31.427Z,1.70
2023-01-18T18:12:58.807Z,1.50
2023-01-18T18:15:25.731Z,1.52
2023-01-18T18:17:52.488Z,1.50
2023-01-18T18:20:20.789Z,1.35
2023-01-18T18:22:48.998Z,1.85
2023-01-18T18:25:15.718Z,1.83
2023-01-18T18:27:46.792Z,1.52
2023-01-18T18:30:14.670Z,2.17
2023-01-18T18:32:41.377Z,1.60
2023-01-18T18:35:23.723Z,2.95
2023-01-18T18:37:51.691Z,2.03
2023-01-18T18:40:19.374Z,2.00
2023-01-18T18:42:56.440Z,1.73
2023-01-18T18:45:27.819Z,1.63
2023-01-18T18:47:54.901Z,1.60
2023-01-18T18:50:24.913Z,1.30
2023-01-18T18:52:51.728Z,1.45
2023-01-18T18:55:19.076Z,1.40
2023-01-18T18:57:45.869Z,1.40
2023-01-18T19:00:13.224Z,2.00
2023-01-18T19:02:40.054Z,2.25
2023-01-18T19:05:07.142Z,1.77
2023-01-18T19:07:34.944Z,1.40
2023-01-18T19:10:01.670Z,2.70
2023-01-18T19:12:28.418Z,2.47
2023-01-18T19:14:55.106Z,1.80
2023-01-18T19:17:30.480Z,1.90
2023-01-18T19:19:58.143Z,2.15
2023-01-18T19:22:24.985Z,2.13
2023-01-18T19:24:52.246Z,2.10
2023-01-18T19:27:19.221Z,2.83
2023-01-18T19:29:46.361Z,2.15
2023-01-18T19:32:13.297Z,2.05
2023-01-18T19:34:40.288Z,2.45
2023-01-18T19:37:07.875Z,2.15
2023-01-18T19:39:35.014Z,1.75
2023-01-18T19:42:02.421Z,1.88
2023-01-18T19:44:29.570Z,2.00
2023-01-18T19:46:57.048Z,1.70
2023-01-18T19:49:25.804Z,1.55
2023-01-18T19:51:54.521Z,2.35
2023-01-18T19:54:21.596Z,1.95
2023-01-18T19:56:48.369Z,2.33
2023-01-18T19:59:15.429Z,1.98
2023-01-18T20:01:42.235Z,2.13
2023-01-18T20:04:09.278Z,2.15
2023-01-18T20:06:38.462Z,2.35
2023-01-18T20:09:17.744Z,2.42
2023-01-18T20:11:45.917Z,2.10
2023-01-18T20:14:12.831Z,2.20
2023-01-18T20:16:39.648Z,1.83
2023-01-18T20:19:06.447Z,1.65
2023-01-18T20:21:34.636Z,2.10
2023-01-18T20:24:01.991Z,2.05
2023-01-18T20:26:36.503Z,1.80
2023-01-18T20:29:06.906Z,2.17
2023-01-18T20:31:36.652Z,2.05
2023-01-18T20:34:04.010Z,1.88
2023-01-18T20:36:36.810Z,1.90
2023-01-18T20:39:05.404Z,2.00
2023-01-18T20:41:32.292Z,1.98
2023-01-18T20:43:59.197Z,2.58
2023-01-18T20:46:26.475Z,2.22
2023-01-18T20:48:53.414Z,1.77
2023-01-18T20:51:20.504Z,1.88
2023-01-18T20:53:47.435Z,2.22
2023-01-18T20:56:28.393Z,2.33
2023-01-18T20:58:56.304Z,2.10
2023-01-18T21:01:23.224Z,1.95
2023-01-18T21:03:54.286Z,2.10
2023-01-18T21:06:21.177Z,1.52
2023-01-18T21:08:48.023Z,2.28
2023-01-18T21:11:16.027Z,1.40
2023-01-18T21:13:42.819Z,1.63
2023-01-18T21:16:09.906Z,1.33
2023-01-18T21:18:37.667Z,2.38
2023-01-18T21:21:04.828Z,2.10
2023-01-18T21:23:39.214Z,1.50
2023-01-18T21:26:10.095Z,1.50
2023-01-18T21:28:36.891Z,1.42
2023-01-18T21:31:04.120Z,1.65
2023-01-18T21:33:31.658Z,1.42
2023-01-18T21:36:06.654Z,1.92
2023-01-18T21:38:33.501Z,1.70
2023-01-18T21:41:20.251Z,1.60
2023-01-18T21:44:05.950Z,2.00
2023-01-18T21:46:32.661Z,1.67
2023-01-18T21:49:06.775Z,1.80
2023-01-18T21:51:52.457Z,2.13
2023-01-18T21:54:21.517Z,2.22
2023-01-18T21:56:48.301Z,1.67
2023-01-18T21:59:15.127Z,1.85
2023-01-18T22:01:43.249Z,1.90
2023-01-18T22:04:30.272Z,1.83
2023-01-18T22:06:59.269Z,1.60
2023-01-18T22:09:29.761Z,1.55
2023-01-18T22:11:57.273Z,1.42
2023-01-18T22:14:24.523Z,1.65
2023-01-18T22:16:51.270Z,1.52
2023-01-18T22:19:19.216Z,1.80
2023-01-18T22:21:46.045Z,1.50
2023-01-18T22:24:13.046Z,1.70
2023-01-18T22:26:40.804Z,1.35
2023-01-18T22:29:07.659Z,1.40
2023-01-18T22:31:34.595Z,1.20
2023-01-18T22:34:02.463Z,1.80
2023-01-18T22:36:30.547Z,1.63
2023-01-18T22:38:57.406Z,1.15
2023-01-18T22:41:27.254Z,1.50
2023-01-18T22:43:54.405Z,1.27
2023-01-18T22:46:21.654Z,1.70
2023-01-18T22:48:48.466Z,1.85
2023-01-18T22:51:16.957Z,1.50
2023-01-18T22:53:44.112Z,1.60
2023-01-18T22:56:21.679Z,1.63
2023-01-18T22:58:48.726Z,1.48
2023-01-18T23:01:30.594Z,1.17
2023-01-18T23:03:58.650Z,1.50
2023-01-18T23:06:28.052Z,1.48
2023-01-18T23:08:55.224Z,1.70
2023-01-18T23:11:26.232Z,2.03
2023-01-18T23:14:13.951Z,1.20
2023-01-18T23:16:59.561Z,1.60
2023-01-18T23:19:28.130Z,1.20
2023-01-18T23:21:56.214Z,1.50
2023-01-18T23:24:23.099Z,1.15
2023-01-18T23:26:50.123Z,1.30
2023-01-18T23:29:16.892Z,1.52
2023-01-18T23:31:43.574Z,1.42
2023-01-18T23:34:10.448Z,1.33
2023-01-18T23:36:37.112Z,1.33
2023-01-18T23:39:22.866Z,1.10
2023-01-18T23:42:08.658Z,1.10
2023-01-18T23:44:54.142Z,1.10
2023-01-18T23:47:39.573Z,1.15
2023-01-18T23:50:25.241Z,1.42
2023-01-18T23:53:10.396Z,1.60
2023-01-18T23:55:37.143Z,1.38
2023-01-18T23:58:03.953Z,1.50
